Latest Weather Observations for Proserpine

IDQ60801

Issued at 5:02 pm EST Thursday 23 February 2017 (issued every 30 minutes, with the page automatically refreshed every 10 minutes)

About weather observations | Map of weather stations | Latest weather observations for QLD | Other Formats
Station Details ID: 033247 Name: PROSERPINE AIRPORT Lat: -20.49 Lon: 148.56 Height: 19.7 m
Data from the previous 72 hours. | See also: Recent months at Proserpine
Date/Time
EST
Temp
°C
App
Temp
°C
Dew
Point
°C
Rel
Hum
%
Delta-T
°C
Wind Press
QNH
hPa
Press
MSL
hPa
Rain since
9am
mm
Dir  Spd
km/h
Gust
km/h
Spd
kts
Gust
kts
23/04:30pm 29.2 30.2 24.1 74 3.5 ESE 26 39 14 21 1012.6 1012.5 1.6
23/04:00pm 29.3 29.7 23.7 72 3.9 ESE 28 43 15 23 1012.5 1012.4 1.6
23/03:30pm 29.6 30.4 24.5 74 3.6 ESE 28 39 15 21 1012.6 1012.5 1.6
23/03:00pm 29.2 29.5 23.6 72 3.9 E 28 39 15 21 1012.5 1012.4 1.6
23/02:30pm 28.6 30.6 24.6 79 2.8 ESE 22 35 12 19 1013.1 1013.0 1.4
23/02:00pm 26.6 28.1 23.7 84 2.0 E 22 32 12 17 1013.6 1013.5 1.4
23/01:30pm 27.3 29.2 24.4 84 2.0 E 22 32 12 17 1013.9 1013.8 1.4
23/01:00pm 26.9 30.2 24.5 87 1.7 ESE 15 24 8 13 1014.1 1014.0 1.4
23/12:30pm 25.9 28.9 24.7 93 0.8 E 17 26 9 14 1014.7 1014.6 1.4
23/12:00pm 25.9 28.4 24.7 93 0.8 E 20 32 11 17 1015.0 1014.9 0.6
23/11:30am 25.5 27.5 24.5 94 0.7 E 22 32 12 17 1015.1 1015.0 0.4
23/11:00am 26.2 27.7 23.7 86 1.7 E 22 32 12 17 1015.2 1015.1 0.2
23/10:30am 29.6 30.1 24.0 72 3.9 SE 28 39 15 21 1015.0 1014.9 0.2
23/10:00am 29.2 30.2 24.1 74 3.5 SSE 26 35 14 19 1015.0 1014.9 0.2
23/09:30am 29.3 31.0 24.6 76 3.3 SSE 24 35 13 19 1015.2 1015.1 0.0
23/09:00am 27.5 28.1 23.5 79 2.7 SSE 26 35 14 19 1015.2 1015.1 6.2
23/08:30am 27.3 29.2 23.7 81 2.5 SSE 20 26 11 14 1015.2 1015.1 6.2
23/08:00am 25.7 28.1 23.6 88 1.4 S 17 24 9 13 1015.1 1015.0 6.2
23/07:30am 25.4 28.7 23.8 91 1.1 S 13 19 7 10 1014.7 1014.6 6.2
23/07:00am 24.6 27.3 23.4 93 0.8 SSE 15 19 8 10 1014.5 1014.4 6.2
23/06:30am 24.5 27.6 23.5 94 0.7 SSE 13 19 7 10 1014.2 1014.1 6.0
23/06:00am 24.3 27.5 23.1 93 0.8 S 11 17 6 9 1014.1 1014.0 5.4
23/05:30am 24.0 27.6 23.1 95 0.6 S 9 13 5 7 1013.6 1013.5 5.4
23/05:00am 23.9 28.1 23.2 96 0.5 SSW 6 9 3 5 1013.2 1013.1 5.4
23/04:30am 24.1 27.8 23.2 95 0.6 S 9 13 5 7 1012.9 1012.8 5.4
23/04:00am 23.9 26.7 23.0 95 0.6 S 13 17 7 9 1012.8 1012.7 5.4
23/03:30am 23.9 26.6 22.9 94 0.7 S 13 28 7 15 1012.8 1012.7 5.4
23/03:00am 23.9 27.8 23.0 95 0.6 SSW 7 11 4 6 1013.1 1013.0 5.4
23/02:44am 23.9 28.0 23.0 95 0.6 SSW 6 11 3 6 1013.2 1013.1 5.4
23/02:30am 23.9 27.1 23.0 95 0.6 S 11 15 6 8 1013.3 1013.2 5.4
23/02:13am 24.1 27.6 22.9 93 0.8 ENE 9 35 5 19 1013.4 1013.3 3.8
23/02:00am 23.9 27.3 22.7 93 0.8 SE 9 15 5 8 1013.7 1013.6 2.6
23/01:30am 23.9 27.7 22.7 93 0.8 SSE 7 11 4 6 1013.8 1013.7 2.0
23/01:25am 23.9 27.7 22.7 93 0.8 ESE 7 13 4 7 1013.9 1013.8 2.0
23/01:18am 23.9 27.4 22.9 94 0.7 ESE 9 15 5 8 1014.1 1014.0 2.0
23/01:15am 24.0 27.6 23.0 94 0.7 SE 9 15 5 8 1014.1 1014.0 1.4
23/01:00am 24.0 27.9 23.0 94 0.7 SSW 7 11 4 6 1014.0 1013.9 1.2
23/12:30am 24.1 26.0 22.7 92 0.9 SSE 17 24 9 13 1014.3 1014.2 0.8
23/12:00am 25.0 27.1 23.1 89 1.3 S 17 22 9 12 1014.6 1014.5 0.4
 
Date/Time
EST
Temp
°C
App
Temp
°C
Dew
Point
°C
Rel
Hum
%
Delta-T
°C
Wind Press
QNH
hPa
Press
MSL
hPa
Rain since
9am
mm
Dir  Spd
km/h
Gust
km/h
Spd
kts
Gust
kts
22/11:30pm 25.2 28.2 23.4 90 1.2 S 13 19 7 10 1014.6 1014.5 0.4
22/11:00pm 25.0 27.9 23.2 90 1.2 S 13 20 7 11 1014.6 1014.5 0.4
22/10:30pm 24.9 28.3 23.3 91 1.1 SSE 11 15 6 8 1014.7 1014.6 0.4
22/10:00pm 24.8 28.6 23.4 92 1.0 S 9 13 5 7 1014.6 1014.5 0.4
22/09:30pm 24.9 28.4 23.5 92 1.0 S 11 15 6 8 1014.2 1014.1 0.4
22/09:00pm 25.2 27.6 23.6 91 1.1 SE 17 26 9 14 1014.0 1013.9 0.2
22/08:30pm 25.4 27.8 22.9 86 1.7 SSE 15 22 8 12 1013.5 1013.4 0.2
22/08:00pm 26.1 28.4 22.8 82 2.2 SSE 15 20 8 11 1013.5 1013.4 0.0
22/07:30pm 26.2 27.5 23.3 84 2.0 SE 22 35 12 19 1013.1 1013.0 0.0
22/07:00pm 27.5 28.4 22.7 75 3.3 SE 22 33 12 18 1012.6 1012.5 0.0
22/06:30pm 27.9 28.4 22.6 73 3.6 ESE 24 35 13 19 1012.1 1012.0 0.0
22/06:00pm 28.5 28.6 23.2 73 3.6 ESE 28 44 15 24 1012.0 1011.9 0.0
22/05:30pm 28.6 29.1 22.6 70 4.1 ESE 24 35 13 19 1011.9 1011.8 0.0
22/05:00pm 29.5 28.9 22.0 64 5.1 ESE 28 41 15 22 1011.7 1011.6 0.0
22/04:30pm 30.2 30.5 22.9 65 5.0 ESE 26 39 14 21 1011.6 1011.5 0.0
22/04:00pm 30.6 30.4 22.7 62 5.4 ESE 28 39 15 21 1011.7 1011.6 0.0
22/03:30pm 30.7 29.7 21.2 57 6.4 ESE 28 37 15 20 1011.9 1011.8 0.0
22/03:00pm 30.7 29.3 22.0 59 5.9 ESE 32 43 17 23 1012.0 1011.9 0.0
22/02:30pm 31.5 31.2 21.9 56 6.5 ESE 26 39 14 21 1012.1 1012.0 0.0
22/02:00pm 31.8 32.1 22.2 56 6.5 ESE 24 37 13 20 1012.2 1012.1 0.0
22/01:30pm 30.7 30.9 22.8 62 5.4 ESE 26 35 14 19 1012.3 1012.2 0.0
22/01:00pm 31.9 31.9 23.7 62 5.7 SE 30 39 16 21 1012.6 1012.5 0.0
22/12:30pm 31.7 32.2 22.7 59 6.2 ESE 24 37 13 20 1013.0 1012.9 0.0
22/12:00pm 30.8 30.6 22.1 59 5.9 ESE 26 39 14 21 1013.3 1013.2 0.0
22/11:30am 29.6 28.9 21.0 60 5.7 ESE 26 39 14 21 1013.7 1013.6 0.0
22/11:00am 31.2 32.3 23.6 64 5.3 ESE 24 33 13 18 1013.8 1013.7 0.0
22/10:30am 30.3 30.4 22.5 63 5.3 SE 26 33 14 18 1014.1 1014.0 0.0
22/10:00am 29.7 30.5 22.4 65 5.0 ESE 22 33 12 18 1014.3 1014.2 0.0
22/09:30am 29.5 32.1 23.9 72 3.9 SSE 17 26 9 14 1014.5 1014.4 0.0
22/09:00am 29.0 32.0 23.4 72 3.8 SSE 13 20 7 11 1014.5 1014.4 0.0
22/08:30am 27.6 30.8 23.0 76 3.1 SSE 11 17 6 9 1014.3 1014.2 0.0
22/08:00am 26.7 29.9 23.0 80 2.5 SSW 11 17 6 9 1014.3 1014.2 0.0
22/07:30am 26.0 28.1 21.7 77 2.9 S 13 19 7 10 1014.2 1014.1 0.0
22/07:00am 25.2 28.7 22.1 83 2.1 SSE 7 13 4 7 1014.0 1013.9 0.0
22/06:30am 23.6 26.2 22.0 91 1.1 SSE 11 19 6 10 1014.0 1013.9 0.0
22/06:00am 23.5 28.5 22.5 94 0.7 CALM 0 0 0 0 1013.7 1013.6 0.0
22/05:30am 23.7 27.8 23.0 96 0.5 SSW 6 13 3 7 1013.5 1013.4 0.0
22/05:00am 23.1 28.0 22.4 96 0.5 CALM 0 0 0 0 1013.4 1013.3 0.0
22/04:30am 23.4 28.5 22.6 95 0.5 CALM 0 0 0 0 1013.1 1013.0 0.0
22/04:00am 23.6 28.0 22.8 95 0.5 S 4 7 2 4 1013.0 1012.9 0.0
22/03:30am 23.8 28.7 23.0 95 0.5 N 2 11 1 6 1013.0 1012.9 0.0
22/03:00am 23.8 29.1 23.0 95 0.5 CALM 0 0 0 0 1013.0 1012.9 0.0
22/02:30am 23.7 27.2 22.9 95 0.5 SSW 9 11 5 6 1013.1 1013.0 0.0
22/02:00am 23.6 28.7 22.6 94 0.7 CALM 0 6 0 3 1013.3 1013.2 0.0
22/01:30am 23.6 27.5 22.6 94 0.7 SW 6 7 3 4 1013.5 1013.4 0.0
22/01:00am 23.7 28.8 22.7 94 0.7 CALM 0 0 0 0 1013.9 1013.8 0.0
22/12:30am 23.8 28.2 22.8 94 0.7 W 4 7 2 4 1014.1 1014.0 0.0
22/12:00am 23.9 27.9 22.7 93 0.8 WSW 6 7 3 4 1014.3 1014.2 0.0
 
Date/Time
EST
Temp
°C
App
Temp
°C
Dew
Point
°C
Rel
Hum
%
Delta-T
°C
Wind Press
QNH
hPa
Press
MSL
hPa
Rain since
9am
mm
Dir  Spd
km/h
Gust
km/h
Spd
kts
Gust
kts
21/11:30pm 24.2 29.5 23.0 93 0.8 CALM 0 0 0 0 1014.2 1014.1 0.0
21/11:00pm 23.8 28.1 22.6 93 0.8 WSW 4 6 2 3 1014.3 1014.2 0.0
21/10:30pm 23.8 27.5 22.6 93 0.8 W 7 7 4 4 1014.2 1014.1 0.0
21/10:00pm 24.1 28.1 22.7 92 0.9 SSW 6 9 3 5 1014.1 1014.0 0.0
21/09:30pm 24.4 29.5 22.7 90 1.1 CALM 0 0 0 0 1014.0 1013.9 0.0
21/09:00pm 24.9 29.7 22.2 85 1.8 CALM 0 0 0 0 1013.7 1013.6 0.0
21/08:30pm 25.2 30.3 22.7 86 1.7 CALM 0 0 0 0 1013.5 1013.4 0.0
21/08:00pm 25.3 29.2 22.6 85 1.8 ESE 6 9 3 5 1013.3 1013.2 0.0
21/07:30pm 25.8 30.9 22.7 83 2.1 CALM 0 6 0 3 1013.0 1012.9 0.0
21/07:00pm 26.1 29.8 22.6 81 2.4 ESE 7 9 4 5 1012.7 1012.6 0.0
21/06:30pm 27.3 30.3 22.0 73 3.6 ESE 9 13 5 7 1012.3 1012.2 0.0
21/06:00pm 28.6 31.0 21.6 66 4.7 ESE 11 15 6 8 1012.0 1011.9 0.0
21/05:30pm 28.7 30.7 21.5 65 4.8 ESE 13 17 7 9 1011.5 1011.4 0.0
21/05:00pm 29.6 30.6 21.0 60 5.7 ESE 17 24 9 13 1011.2 1011.1 0.0
21/04:30pm 30.7 31.8 21.2 57 6.4 ESE 17 28 9 15 1011.4 1011.3 0.0
21/04:00pm 31.6 31.8 20.2 50 7.6 ESE 19 26 10 14 1011.5 1011.4 0.0
21/03:30pm 32.1 32.2 20.0 48 8.0 E 19 24 10 13 1011.5 1011.4 0.0
21/03:00pm 32.5 32.6 20.4 49 8.1 ENE 20 28 11 15 1011.5 1011.4 0.0
21/02:30pm 32.9 33.9 21.1 50 7.9 ESE 17 22 9 12 1011.6 1011.5 0.0
21/02:00pm 32.2 33.2 21.7 54 7.1 ESE 19 28 10 15 1011.8 1011.7 0.0
21/01:30pm 32.0 33.7 23.0 59 6.2 SE 19 26 10 14 1012.1 1012.0 0.0
21/01:00pm 31.9 33.2 23.4 60 5.9 ESE 22 30 12 16 1012.4 1012.3 0.0
21/12:30pm 31.8 33.9 24.1 63 5.4 ESE 20 28 11 15 1012.8 1012.7 0.0
21/12:00pm 31.1 33.1 24.0 66 4.9 ESE 20 28 11 15 1013.2 1013.1 0.0
21/11:30am 30.9 32.5 23.8 66 4.9 ESE 22 30 12 16 1013.3 1013.2 0.0
21/11:00am 31.0 33.4 23.6 64 5.1 ESE 17 28 9 15 1013.6 1013.5 0.0
21/10:30am 31.0 34.4 24.6 68 4.5 SE 15 24 8 13 1013.6 1013.5 0.0
21/10:00am 30.5 34.6 24.6 70 4.1 SE 11 19 6 10 1013.8 1013.7 0.0
21/09:30am 30.1 34.7 24.7 73 3.8 SSE 9 15 5 8 1013.9 1013.8 0.0
21/09:00am 28.9 33.5 24.7 78 2.9 ESE 9 13 5 7 1013.7 1013.6 2.0
21/08:30am 28.2 33.2 24.8 82 2.4 ESE 7 13 4 7 1013.5 1013.4 1.8
21/08:00am 26.2 30.7 23.9 87 1.6 SSE 7 9 4 5 1013.3 1013.2 1.8
21/07:30am 25.0 29.6 23.8 93 0.8 SSW 6 7 3 4 1013.1 1013.0 1.8
21/07:00am 24.1 29.6 23.4 96 0.5 CALM 0 0 0 0 1012.9 1012.8 1.8
21/06:30am 22.8 27.7 22.3 97 0.3 CALM 0 0 0 0 1012.5 1012.4 1.8
21/06:29am 22.8 27.7 22.3 97 0.3 CALM 0 0 0 0 1012.5 1012.4 1.8
21/06:00am 22.1 26.6 21.6 97 0.3 CALM 0 2 0 1 1012.2 1012.1 1.8
21/05:30am 22.4 27.1 21.9 97 0.3 CALM 0 0 0 0 1012.1 1012.0 1.8
21/05:00am 22.6 27.4 22.1 97 0.3 CALM 0 0 0 0 1012.0 1011.9 1.8
21/04:37am 22.5 27.1 21.8 96 0.5 CALM 0 0 0 0 1011.9 1011.8 1.8
21/04:30am 22.7 27.4 22.0 96 0.5 CALM 0 0 0 0 1011.8 1011.7 1.8
21/04:00am 22.9 27.7 22.2 96 0.5 CALM 0 0 0 0 1011.5 1011.4 1.8
21/03:30am 22.9 27.7 22.2 96 0.5 CALM 0 0 0 0 1011.2 1011.1 1.8
21/03:00am 23.3 28.4 22.6 96 0.5 CALM 0 0 0 0 1011.1 1011.0 1.8
21/02:40am 23.2 28.2 22.5 96 0.5 CALM 0 0 0 0 1010.9 1010.8 1.8
21/02:30am 23.5 28.7 22.8 96 0.5 CALM 0 0 0 0 1010.9 1010.8 1.8
21/02:00am 23.8 29.1 23.1 96 0.5 CALM 0 0 0 0 1011.1 1011.0 1.8
21/01:30am 23.8 28.7 23.1 96 0.5 WSW 2 7 1 4 1011.2 1011.1 1.8
21/01:00am 23.9 28.4 23.0 95 0.6 SW 4 7 2 4 1011.4 1011.3 1.8
21/12:30am 24.0 28.3 23.3 96 0.5 SSW 6 6 3 3 1011.7 1011.6 1.8
21/12:00am 23.8 29.1 23.0 95 0.5 CALM 0 0 0 0 1012.0 1011.9 1.8
 
Date/Time
EST
Temp
°C
App
Temp
°C
Dew
Point
°C
Rel
Hum
%
Delta-T
°C
Wind Press
QNH
hPa
Press
MSL
hPa
Rain since
9am
mm
Dir  Spd
km/h
Gust
km/h
Spd
kts
Gust
kts
20/11:30pm 24.0 29.3 23.1 95 0.6 CALM 0 0 0 0 1012.0 1011.9 1.8
20/11:00pm 24.0 29.3 23.1 95 0.6 CALM 0 0 0 0 1012.2 1012.1 1.8
20/10:30pm 23.9 29.0 22.7 93 0.8 CALM 0 0 0 0 1012.1 1012.0 1.8
20/10:00pm 24.3 29.7 23.3 94 0.7 CALM 0 0 0 0 1011.9 1011.8 1.8
20/09:30pm 24.4 29.9 23.4 94 0.7 CALM 0 0 0 0 1011.6 1011.5 1.8
20/09:00pm 24.6 29.1 23.6 94 0.7 SSW 6 7 3 4 1011.3 1011.2 1.8
20/08:30pm 24.5 28.9 23.5 94 0.7 W 6 7 3 4 1011.1 1011.0 1.8
20/08:00pm 24.7 28.7 23.7 94 0.7 WNW 9 11 5 6 1010.8 1010.7 1.8
20/07:30pm 24.8 28.8 23.8 94 0.7 SW 9 11 5 6 1010.6 1010.5 1.8
20/07:00pm 25.4 29.7 24.2 93 0.8 S 9 13 5 7 1010.1 1010.0 1.8
20/06:30pm 25.9 30.8 24.7 93 0.8 S 7 11 4 6 1009.8 1009.7 1.8
20/06:00pm 26.2 30.8 24.8 92 1.0 ESE 9 13 5 7 1009.7 1009.6 1.8
20/05:30pm 26.6 31.5 24.6 89 1.4 SSW 7 17 4 9 1009.5 1009.4 1.8
20/05:11pm 27.6 31.2 23.8 80 2.6 WSW 11 15 6 8 1009.4 1009.3 1.2

Other Formats:

Comma delimited format used in spreadsheet applications
http://www.bom.gov.au/fwo/IDQ60801/IDQ60801.94365.axf

JavaScript Object Notation format (JSON) in row-major order
http://www.bom.gov.au/fwo/IDQ60801/IDQ60801.94365.json